Thursday, October 19, 2017, 7:05 AM EDT
Back to Local

KSNC, Chester, Chester Airport

Location: Chester, CT, United States Lat: 41.384
Local Time: 7:05 AM EDT (11:05 GMT) Lon: -72.506
Time Zone: US/Eastern Elev: 416 ft

Show me the last for .
Show Decoded

2017-10-19 06:35 METAR KSNC 191035Z AUTO 00000KT 5SM BR CLR 12/11 A3024 RMK AO2 =
2017-10-19 06:15 METAR KSNC 191015Z AUTO 23003KT 6SM BR CLR 12/12 A3025 RMK AO2 =
2017-10-19 05:55 METAR KSNC 190955Z AUTO 00000KT 7SM CLR 12/12 A3025 RMK AO2 =
2017-10-19 05:35 METAR KSNC 190935Z AUTO 00000KT 7SM CLR 12/12 A3025 RMK AO2 =
2017-10-19 05:15 METAR KSNC 190915Z AUTO 00000KT 9SM CLR 12/12 A3025 RMK AO2 =
2017-10-19 04:55 METAR KSNC 190855Z AUTO 00000KT 8SM CLR 12/11 A3025 RMK AO2 =
2017-10-19 04:35 METAR KSNC 190835Z AUTO 00000KT 6SM BR CLR 12/11 A3025 RMK AO2 =
2017-10-19 04:15 METAR KSNC 190815Z AUTO 00000KT 8SM CLR 12/12 A3025 RMK AO2 =
2017-10-19 03:55 METAR KSNC 190755Z AUTO 00000KT 10SM CLR 13/12 A3025 RMK AO2 =
2017-10-19 03:35 METAR KSNC 190735Z AUTO 23004KT 10SM CLR 13/13 A3025 RMK AO2 =
2017-10-19 03:15 METAR KSNC 190715Z AUTO 24003KT 10SM CLR 13/12 A3025 RMK AO2 =
2017-10-19 02:55 METAR KSNC 190655Z AUTO 24004KT 9SM CLR 12/11 A3026 RMK AO2 =
2017-10-19 02:35 METAR KSNC 190635Z AUTO 00000KT 4SM BR CLR 11/11 A3026 RMK AO2 =
2017-10-19 02:15 METAR KSNC 190615Z AUTO 00000KT 7SM CLR 12/11 A3027 RMK AO2 =
2017-10-19 01:55 METAR KSNC 190555Z AUTO 00000KT 10SM CLR 12/12 A3027 RMK AO2 =
2017-10-19 01:35 METAR KSNC 190535Z AUTO 00000KT 10SM CLR 13/13 A3027 RMK AO2 =
2017-10-19 01:15 METAR KSNC 190515Z AUTO 00000KT 10SM CLR 13/12 A3027 RMK AO2 =
2017-10-19 00:55 METAR KSNC 190455Z AUTO 23003KT 10SM CLR 13/12 A3027 RMK AO2 =
2017-10-19 00:35 METAR KSNC 190435Z AUTO 23003KT 10SM CLR 13/12 A3027 RMK AO2 =
2017-10-19 00:15 METAR KSNC 190415Z AUTO 00000KT 10SM CLR 13/12 A3027 RMK AO2 =
2017-10-18 23:55 METAR KSNC 190355Z AUTO 00000KT 10SM CLR 13/12 A3028 RMK AO2 =
2017-10-18 23:35 METAR KSNC 190335Z AUTO 00000KT 10SM CLR 13/12 A3028 RMK AO2 =
2017-10-18 23:15 METAR KSNC 190315Z AUTO 23003KT 10SM CLR 13/12 A3028 RMK AO2 =
2017-10-18 22:55 METAR KSNC 190255Z AUTO 00000KT 10SM CLR 14/12 A3029 RMK AO2 =
2017-10-18 22:35 METAR KSNC 190235Z AUTO 00000KT 10SM CLR 13/12 A3029 RMK AO2 =
2017-10-18 22:15 METAR KSNC 190215Z AUTO 23003KT 10SM CLR 13/12 A3029 RMK AO2 =
2017-10-18 21:55 METAR KSNC 190155Z AUTO 23003KT 10SM CLR 13/12 A3029 RMK AO2 =
2017-10-18 21:35 METAR KSNC 190135Z AUTO 00000KT 10SM CLR 14/11 A3029 RMK AO2 =
2017-10-18 21:15 METAR KSNC 190115Z AUTO 00000KT 10SM CLR 14/12 A3029 RMK AO2 =
2017-10-18 20:55 METAR KSNC 190055Z AUTO 22003KT 10SM CLR 14/12 A3029 RMK AO2 =
2017-10-18 20:35 METAR KSNC 190035Z AUTO VRB04KT 10SM CLR 14/12 A3028 RMK AO2 =
2017-10-18 20:15 METAR KSNC 190015Z AUTO 22004KT 10SM CLR 15/12 A3028 RMK AO2 =
2017-10-18 19:55 METAR KSNC 182355Z AUTO 21006KT 10SM CLR 15/12 A3028 RMK AO2 =
2017-10-18 19:35 METAR KSNC 182335Z AUTO 22004KT 10SM CLR 14/10 A3028 RMK AO2 =
2017-10-18 19:15 METAR KSNC 182315Z AUTO 00000KT 10SM CLR 14/10 A3028 RMK AO2 =
2017-10-18 18:55 METAR KSNC 182255Z AUTO 00000KT 10SM CLR 15/10 A3027 RMK AO2 =
2017-10-18 18:35 METAR KSNC 182235Z AUTO 25003KT 10SM CLR 15/09 A3027 RMK AO2 =
2017-10-18 18:15 METAR KSNC 182215Z AUTO 23003KT 10SM CLR 16/09 A3026 RMK AO2 =
2017-10-18 17:55 METAR KSNC 182155Z AUTO 00000KT 10SM CLR 17/09 A3026 RMK AO2 =
2017-10-18 17:35 METAR KSNC 182135Z AUTO 21004KT 10SM CLR 18/08 A3025 RMK AO2 =
2017-10-18 17:15 METAR KSNC 182115Z AUTO 22003KT 10SM CLR 20/08 A3025 RMK AO2 =
2017-10-18 16:55 METAR KSNC 182055Z AUTO 22003KT 10SM CLR 20/08 A3025 RMK AO2 =
2017-10-18 16:35 METAR KSNC 182035Z AUTO 22005KT 10SM CLR 20/07 A3025 RMK AO2 =
2017-10-18 16:15 METAR KSNC 182015Z AUTO 21007KT 10SM CLR 21/07 A3025 RMK AO2 =
2017-10-18 15:55 METAR KSNC 181955Z AUTO 20007KT 10SM CLR 21/07 A3025 RMK AO2 =
2017-10-18 15:35 METAR KSNC 181935Z AUTO 23008KT 10SM CLR 21/07 A3025 RMK AO2 =
2017-10-18 15:15 METAR KSNC 181915Z AUTO 21008KT 180V240 10SM CLR 21/07 A3025 RMK AO2 =
2017-10-18 14:55 METAR KSNC 181855Z AUTO VRB06KT 10SM CLR 22/09 A3026 RMK AO2 =
2017-10-18 14:35 METAR KSNC 181835Z AUTO 20007G12KT 160V230 10SM CLR 22/09 A3026 RMK AO2 =
2017-10-18 14:15 METAR KSNC 181815Z AUTO 19006KT 10SM CLR 22/07 A3026 RMK AO2 =
2017-10-18 13:55 METAR KSNC 181755Z AUTO 25008KT 220V300 10SM CLR 23/07 A3026 RMK AO2 =
2017-10-18 13:35 METAR KSNC 181735Z AUTO 26004KT 10SM CLR 22/07 A3027 RMK AO2 =
2017-10-18 13:15 METAR KSNC 181715Z AUTO VRB04KT 10SM CLR 21/07 A3028 RMK AO2 =
2017-10-18 12:15 METAR KSNC 181615Z AUTO 32004KT 10SM CLR 21/07 A3030 RMK AO2 =
2017-10-18 11:55 METAR KSNC 181555Z AUTO VRB04KT 10SM CLR 20/07 A3030 RMK AO2 =
2017-10-18 11:35 METAR KSNC 181535Z AUTO 33009KT 10SM CLR 20/07 A3030 RMK AO2 =
2017-10-18 11:15 METAR KSNC 181515Z AUTO VRB03KT 10SM CLR 19/06 A3030 RMK AO2 =
2017-10-18 10:55 METAR KSNC 181455Z AUTO 00000KT 10SM CLR 19/06 A3030 RMK AO2 =
2017-10-18 10:35 METAR KSNC 181435Z AUTO 32004KT 10SM CLR 17/06 A3030 RMK AO2 =
2017-10-18 10:15 METAR KSNC 181415Z AUTO 27003KT 10SM CLR 16/05 A3031 RMK AO2 =
2017-10-18 09:55 METAR KSNC 181355Z AUTO 00000KT 10SM CLR 16/05 A3031 RMK AO2 =
2017-10-18 09:35 METAR KSNC 181335Z AUTO 00000KT 10SM CLR 14/04 A3030 RMK AO2 =
2017-10-18 09:15 METAR KSNC 181315Z AUTO 00000KT 10SM CLR 13/04 A3030 RMK AO2 =
2017-10-18 08:55 METAR KSNC 181255Z AUTO VRB04KT 10SM CLR 11/04 A3029 RMK AO2 =
2017-10-18 08:35 METAR KSNC 181235Z AUTO 25004KT 10SM CLR 10/04 A3029 RMK AO2 =
2017-10-18 08:15 METAR KSNC 181215Z AUTO 25004KT 10SM CLR 10/03 A3029 RMK AO2 =
2017-10-18 07:55 METAR KSNC 181155Z AUTO VRB04KT 10SM CLR 09/03 A3028 RMK AO2 =
2017-10-18 07:35 METAR KSNC 181135Z AUTO 25004KT 10SM CLR 08/03 A3028 RMK AO2 =
2017-10-18 07:15 METAR KSNC 181115Z AUTO 00000KT 10SM CLR 08/03 A3027 RMK AO2 =

Support USWX by starting your Amazon purchase here.